Terminal Aerodrome Forecast
Issued by NWS

Home | Current Version | Previous Version | Text Only | Print | Product List | Glossary On
Versions: 1 2 3 4 5 6 7 8 9 10 11 12 13 14 15 16 17 18
010
FTUS45 KABQ 222323
TAFLVS
TAF
KLVS 222323Z 2300/2324 15010KT P6SM SCT100 BKN200
     FM230600 16006KT P6SM SCT100 BKN200
     FM231500 20011KT P6SM FEW100 SCT200
     FM232000 22012G20KT P6SM BKN120=

USA.gov is the U.S. government's official web portal to all federal, state and local government web resources and services.